createdAt,value
2022-10-12T00:01:44.741Z,28.23
2022-10-12T00:05:27.701Z,30.27
2022-10-12T00:09:11.665Z,32.30
2022-10-12T00:12:54.256Z,28.90
2022-10-12T00:16:36.910Z,29.40
2022-10-12T00:20:19.535Z,28.10
2022-10-12T00:24:02.614Z,34.63
2022-10-12T00:27:46.853Z,30.10
2022-10-12T00:31:30.121Z,25.50
2022-10-12T00:35:12.776Z,33.50
2022-10-12T00:38:56.766Z,33.53
2022-10-12T00:42:39.483Z,28.80
2022-10-12T00:46:27.730Z,32.40
2022-10-12T00:50:12.840Z,27.27
2022-10-12T00:54:00.002Z,31.33
2022-10-12T00:57:46.941Z,29.80
2022-10-12T01:01:34.907Z,30.67
2022-10-12T01:05:18.021Z,33.70
2022-10-12T01:09:01.167Z,34.90
2022-10-12T01:12:45.326Z,31.77
2022-10-12T01:16:33.505Z,32.43
2022-10-12T01:20:38.263Z,31.43
2022-10-12T01:24:44.053Z,30.77
2022-10-12T01:28:34.766Z,32.07
2022-10-12T01:32:22.969Z,28.33
2022-10-12T01:36:09.675Z,30.57
2022-10-12T01:39:54.902Z,26.30
2022-10-12T01:43:40.555Z,28.20
2022-10-12T01:47:24.549Z,27.73
2022-10-12T01:51:07.513Z,31.63
2022-10-12T01:55:08.282Z,33.77
2022-10-12T01:58:57.627Z,30.33
2022-10-12T02:02:50.102Z,36.87
2022-10-12T02:06:37.630Z,39.53
2022-10-12T02:10:25.104Z,41.40
2022-10-12T02:14:11.604Z,44.33
2022-10-12T02:17:55.699Z,42.67
2022-10-12T02:21:39.889Z,48.87
2022-10-12T02:25:24.912Z,39.03
2022-10-12T02:29:10.177Z,42.37
2022-10-12T02:32:58.000Z,47.43
2022-10-12T02:36:45.588Z,42.27
2022-10-12T02:40:35.081Z,46.10
2022-10-12T02:44:22.261Z,52.13
2022-10-12T02:48:07.903Z,46.53
2022-10-12T02:51:50.860Z,48.50
2022-10-12T02:55:33.552Z,43.17
2022-10-12T02:59:17.905Z,42.70
2022-10-12T03:03:00.536Z,46.07
2022-10-12T03:06:45.031Z,49.20
2022-10-12T03:10:27.731Z,51.07
2022-10-12T03:14:11.269Z,52.13
2022-10-12T03:17:53.905Z,51.87
2022-10-12T03:21:36.614Z,48.00
2022-10-12T03:25:20.760Z,49.37
2022-10-12T03:29:03.524Z,51.77
2022-10-12T03:32:46.189Z,54.33
2022-10-12T03:36:28.869Z,51.77
2022-10-12T03:40:12.431Z,48.97
2022-10-12T03:43:56.413Z,48.80
2022-10-12T03:47:39.584Z,48.03
2022-10-12T03:51:22.594Z,50.27
2022-10-12T03:55:05.907Z,48.30
2022-10-12T03:58:48.565Z,47.90
2022-10-12T04:02:32.622Z,52.90
2022-10-12T04:06:15.320Z,54.43
2022-10-12T04:09:57.947Z,56.73
2022-10-12T04:13:40.599Z,55.93
2022-10-12T04:17:23.227Z,49.33
2022-10-12T04:21:10.926Z,52.93
2022-10-12T04:24:53.581Z,57.83
2022-10-12T04:28:36.449Z,49.90
2022-10-12T04:32:19.153Z,52.47
2022-10-12T04:36:01.851Z,62.90
2022-10-12T04:39:45.847Z,61.90
2022-10-12T04:43:28.559Z,65.90
2022-10-12T04:47:11.197Z,69.70
2022-10-12T04:50:54.001Z,73.57
2022-10-12T04:54:36.751Z,71.73
2022-10-12T04:58:20.734Z,67.93
2022-10-12T05:02:03.526Z,63.80
2022-10-12T05:05:46.471Z,78.83
2022-10-12T05:09:29.131Z,72.57
2022-10-12T05:13:11.742Z,76.77
2022-10-12T05:16:55.758Z,87.63
2022-10-12T05:20:38.700Z,87.17
2022-10-12T05:24:21.711Z,82.17
2022-10-12T05:28:04.818Z,76.80
2022-10-12T05:31:47.564Z,84.70
2022-10-12T05:35:31.588Z,74.83
2022-10-12T05:39:14.251Z,82.93
2022-10-12T05:42:56.897Z,84.70
2022-10-12T05:46:39.587Z,80.17
2022-10-12T05:50:22.346Z,79.07
2022-10-12T05:54:06.458Z,80.27
2022-10-12T05:57:51.947Z,89.13
2022-10-12T06:01:34.919Z,74.13
2022-10-12T06:05:17.746Z,83.03
2022-10-12T06:09:00.410Z,84.73
2022-10-12T06:12:44.408Z,85.97
2022-10-12T06:16:27.014Z,89.17
2022-10-12T06:20:10.523Z,82.90
2022-10-12T06:23:53.476Z,81.20
2022-10-12T06:27:36.396Z,89.83
2022-10-12T06:31:20.694Z,93.57
2022-10-12T06:35:03.510Z,81.77
2022-10-12T06:38:46.243Z,92.33
2022-10-12T06:42:28.977Z,83.97
2022-10-12T06:46:11.958Z,84.80
2022-10-12T06:49:58.660Z,82.83
2022-10-12T06:53:41.352Z,79.30
2022-10-12T06:57:24.104Z,94.17
2022-10-12T07:01:08.616Z,87.53
2022-10-12T07:04:55.945Z,75.73
2022-10-12T07:08:39.055Z,70.10
2022-10-12T07:12:21.694Z,71.67
2022-10-12T07:16:04.818Z,60.30
2022-10-12T07:19:47.865Z,59.70
2022-10-12T07:23:32.869Z,58.03
2022-10-12T07:27:15.598Z,55.17
2022-10-12T07:31:02.709Z,55.57
2022-10-12T07:34:45.355Z,56.90
2022-10-12T07:38:28.604Z,53.90
2022-10-12T07:42:18.194Z,49.90
2022-10-12T07:46:01.673Z,46.57
2022-10-12T07:49:44.398Z,46.13
2022-10-12T07:53:27.180Z,44.20
2022-10-12T07:57:09.793Z,43.73
2022-10-12T08:00:53.840Z,45.77
2022-10-12T08:04:36.705Z,46.37
2022-10-12T08:08:19.380Z,47.57
2022-10-12T08:12:02.126Z,41.13
2022-10-12T08:15:51.273Z,40.13
2022-10-12T08:19:36.751Z,48.43
2022-10-12T08:23:19.688Z,43.80
2022-10-12T08:27:02.350Z,44.93
2022-10-12T08:30:44.984Z,44.57
2022-10-12T08:34:29.036Z,41.03
2022-10-12T08:38:13.859Z,47.70
2022-10-12T08:42:04.629Z,49.80
2022-10-12T08:45:51.111Z,48.33
2022-10-12T08:49:38.764Z,54.03
2022-10-12T08:53:26.873Z,57.73
2022-10-12T08:57:10.647Z,58.47
2022-10-12T09:00:56.547Z,49.10
2022-10-12T09:04:49.786Z,41.10
2022-10-12T09:08:43.639Z,48.80
2022-10-12T09:12:45.014Z,47.67
2022-10-12T09:16:30.790Z,42.87
2022-10-12T09:20:19.566Z,44.27
2022-10-12T09:24:05.222Z,48.20
2022-10-12T09:27:48.251Z,44.80
2022-10-12T09:31:40.628Z,41.10
2022-10-12T09:35:23.232Z,41.30
2022-10-12T09:39:13.057Z,40.33
2022-10-12T09:42:57.066Z,43.87
2022-10-12T09:46:43.099Z,38.90
2022-10-12T09:50:40.370Z,41.40
2022-10-12T09:54:26.010Z,37.87
2022-10-12T09:58:19.975Z,39.30
2022-10-12T10:02:11.355Z,43.20
2022-10-12T10:06:03.980Z,37.37
2022-10-12T10:09:48.441Z,40.77
2022-10-12T10:13:32.580Z,35.73
2022-10-12T10:17:16.559Z,37.03
2022-10-12T10:21:00.634Z,39.10
2022-10-12T10:24:43.386Z,31.40
2022-10-12T10:28:30.738Z,33.23
2022-10-12T10:32:24.212Z,34.27
2022-10-12T10:36:10.779Z,32.30
2022-10-12T10:39:55.922Z,36.27
2022-10-12T10:43:39.901Z,31.17
2022-10-12T10:47:22.649Z,32.63
2022-10-12T10:51:06.804Z,28.60
2022-10-12T10:54:50.587Z,32.43
2022-10-12T10:58:36.931Z,32.33
2022-10-12T11:02:29.604Z,34.53
2022-10-12T11:06:19.403Z,33.10
2022-10-12T11:10:04.798Z,31.53
2022-10-12T11:13:52.869Z,37.83
2022-10-12T11:17:41.763Z,30.17
2022-10-12T11:21:28.177Z,32.77
2022-10-12T11:25:15.789Z,30.13
2022-10-12T11:29:00.291Z,35.20
2022-10-12T11:32:45.855Z,32.77
2022-10-12T11:36:30.680Z,39.03
2022-10-12T11:41:02.607Z,47.80
2022-10-12T11:44:31.749Z,29.23
2022-10-12T11:48:21.685Z,27.93
2022-10-12T11:52:11.974Z,33.83
2022-10-12T11:56:02.968Z,26.73
2022-10-12T11:59:51.306Z,27.20
2022-10-12T12:03:48.445Z,82.17
2022-10-12T12:07:56.616Z,32.10
2022-10-12T12:11:39.249Z,31.93
2022-10-12T12:15:23.641Z,37.33
2022-10-12T12:19:43.198Z,22.23
2022-10-12T12:23:27.368Z,26.77
2022-10-12T12:27:22.279Z,29.43
2022-10-12T12:31:08.322Z,24.77
2022-10-12T12:35:00.226Z,22.70
2022-10-12T12:38:48.782Z,22.00
2022-10-12T12:42:34.213Z,26.10
2022-10-12T12:46:17.398Z,31.77
2022-10-12T12:50:02.632Z,22.63
2022-10-12T12:53:47.308Z,33.60
2022-10-12T12:57:40.006Z,29.80
2022-10-12T13:01:49.709Z,36.00
2022-10-12T13:06:11.399Z,36.53
2022-10-12T13:10:09.254Z,26.33
2022-10-12T13:14:00.681Z,22.73
2022-10-12T13:17:53.933Z,25.20
2022-10-12T13:21:40.780Z,28.03
2022-10-12T13:25:29.145Z,20.27
2022-10-12T13:29:18.153Z,28.47
2022-10-12T13:33:05.002Z,26.33
2022-10-12T13:36:52.811Z,32.90
2022-10-12T13:40:39.333Z,23.40
2022-10-12T13:44:24.369Z,30.53
2022-10-12T13:48:07.491Z,21.27
2022-10-12T13:51:53.062Z,21.40
2022-10-12T13:55:35.649Z,29.20
2022-10-12T13:59:23.100Z,25.13
2022-10-12T14:03:07.236Z,33.97
2022-10-12T14:06:57.733Z,23.83
2022-10-12T14:10:41.546Z,19.83
2022-10-12T14:14:31.850Z,19.83
2022-10-12T14:18:35.918Z,20.93
2022-10-12T14:22:25.604Z,28.40
2022-10-12T14:26:23.336Z,32.17
2022-10-12T14:30:06.931Z,27.70
2022-10-12T14:33:49.616Z,24.03
2022-10-12T14:37:33.941Z,24.33
2022-10-12T14:41:34.761Z,20.77
2022-10-12T14:45:25.418Z,21.10
2022-10-12T14:49:10.669Z,23.30
2022-10-12T14:52:56.368Z,16.83
2022-10-12T14:56:39.096Z,19.50
2022-10-12T15:00:24.106Z,20.03
2022-10-12T15:04:06.819Z,26.17
2022-10-12T15:07:50.281Z,23.73
2022-10-12T15:11:34.243Z,23.73
2022-10-12T15:15:29.083Z,24.00
2022-10-12T15:19:12.119Z,22.50
2022-10-12T15:22:54.871Z,22.80
2022-10-12T15:26:42.219Z,27.17
2022-10-12T15:30:25.188Z,34.93
2022-10-12T15:34:11.296Z,23.60
2022-10-12T15:37:56.224Z,26.30
2022-10-12T15:41:40.265Z,88.90
2022-10-12T15:45:25.853Z,33.10
2022-10-12T15:49:09.035Z,36.43
2022-10-12T15:52:58.079Z,39.67
2022-10-12T15:56:42.784Z,27.43
2022-10-12T16:00:27.460Z,33.07
2022-10-12T16:04:16.304Z,37.70
2022-10-12T16:07:59.391Z,26.97
2022-10-12T16:11:43.400Z,26.67
2022-10-12T16:15:29.766Z,32.73
2022-10-12T16:19:12.415Z,33.63
2022-10-12T16:22:55.178Z,29.90
2022-10-12T16:26:42.669Z,27.40
2022-10-12T16:30:28.887Z,29.83
2022-10-12T16:34:11.509Z,35.00
2022-10-12T16:37:55.406Z,27.70
2022-10-12T16:41:38.410Z,34.37
2022-10-12T16:45:21.279Z,38.23
2022-10-12T16:49:05.484Z,32.10
2022-10-12T16:52:48.554Z,32.23
2022-10-12T16:56:32.445Z,32.17
2022-10-12T17:00:19.143Z,34.53
2022-10-12T17:04:02.186Z,24.57
2022-10-12T17:07:46.191Z,28.20
2022-10-12T17:11:28.867Z,28.33
2022-10-12T17:15:12.069Z,26.57
2022-10-12T17:18:59.159Z,28.80
2022-10-12T17:22:42.216Z,31.37
2022-10-12T17:26:26.399Z,26.80
2022-10-12T17:30:10.308Z,33.20
2022-10-12T17:33:53.117Z,27.10
2022-10-12T17:37:35.811Z,24.33
2022-10-12T17:41:18.829Z,28.70
2022-10-12T17:45:02.814Z,23.10
2022-10-12T17:48:45.485Z,20.37
2022-10-12T17:52:28.621Z,21.90
2022-10-12T17:56:13.667Z,24.93
2022-10-12T17:59:58.564Z,25.53
2022-10-12T18:03:44.217Z,25.90
2022-10-12T18:07:26.843Z,25.27
2022-10-12T18:11:09.869Z,35.07
2022-10-12T18:14:52.551Z,23.10
2022-10-12T18:18:35.271Z,20.57
2022-10-12T18:22:19.763Z,22.33
2022-10-12T18:26:06.167Z,25.10
2022-10-12T18:29:48.858Z,24.83
2022-10-12T18:33:31.667Z,26.40
2022-10-12T18:37:15.263Z,26.87
2022-10-12T18:41:05.005Z,21.93
2022-10-12T18:44:47.651Z,24.43
2022-10-12T18:48:30.350Z,31.03
2022-10-12T18:52:12.964Z,26.27
2022-10-12T18:55:55.590Z,29.20
2022-10-12T18:59:41.087Z,24.17
2022-10-12T19:03:25.018Z,24.30
2022-10-12T19:07:07.618Z,21.40
2022-10-12T19:10:50.331Z,24.17
2022-10-12T19:14:33.037Z,26.63
2022-10-12T19:18:16.975Z,44.47
2022-10-12T19:21:59.656Z,36.00
2022-10-12T19:25:42.565Z,31.87
2022-10-12T19:29:25.203Z,31.73
2022-10-12T19:33:07.884Z,27.33
2022-10-12T19:36:52.500Z,27.93
2022-10-12T19:40:35.958Z,31.83
2022-10-12T19:44:19.242Z,27.87
2022-10-12T19:48:02.309Z,28.13
2022-10-12T19:51:45.451Z,29.40
2022-10-12T19:55:32.831Z,29.37
2022-10-12T19:59:15.514Z,31.27
2022-10-12T20:02:58.431Z,27.27
2022-10-12T20:06:41.870Z,32.37
2022-10-12T20:10:27.426Z,29.47
2022-10-12T20:14:11.875Z,30.30
2022-10-12T20:17:54.760Z,29.63
2022-10-12T20:21:37.618Z,34.53
2022-10-12T20:25:20.315Z,34.30
2022-10-12T20:29:02.986Z,91.20
2022-10-12T20:32:48.850Z,45.50
2022-10-12T20:36:34.623Z,36.37
2022-10-12T20:40:17.390Z,33.87
2022-10-12T20:44:01.295Z,51.03
2022-10-12T20:47:45.003Z,34.57
2022-10-12T20:51:31.107Z,33.83
2022-10-12T20:55:16.315Z,35.60
2022-10-12T20:58:59.810Z,36.80
2022-10-12T21:02:42.638Z,42.50
2022-10-12T21:06:29.697Z,35.93
2022-10-12T21:10:12.376Z,34.97
2022-10-12T21:13:55.666Z,31.23
2022-10-12T21:17:38.502Z,26.47
2022-10-12T21:21:21.444Z,32.17
2022-10-12T21:25:08.649Z,42.00
2022-10-12T21:28:56.220Z,33.83
2022-10-12T21:32:39.131Z,32.10
2022-10-12T21:36:24.229Z,31.47
2022-10-12T21:40:10.636Z,30.90
2022-10-12T21:43:57.204Z,37.60
2022-10-12T21:47:39.959Z,30.63
2022-10-12T21:51:24.261Z,37.33
2022-10-12T21:55:09.198Z,32.67
2022-10-12T21:58:52.818Z,36.50
2022-10-12T22:02:36.584Z,31.10
2022-10-12T22:06:20.714Z,28.97
2022-10-12T22:10:03.457Z,29.27
2022-10-12T22:13:47.567Z,33.77
2022-10-12T22:17:33.144Z,35.03
2022-10-12T22:21:16.964Z,33.43
2022-10-12T22:24:59.790Z,32.57
2022-10-12T22:28:42.656Z,35.90
2022-10-12T22:32:26.771Z,32.27
2022-10-12T22:36:10.863Z,34.57
2022-10-12T22:39:53.491Z,32.03
2022-10-12T22:43:37.663Z,32.43
2022-10-12T22:47:20.363Z,39.17
2022-10-12T22:51:05.111Z,32.67
2022-10-12T22:54:49.790Z,33.73
2022-10-12T22:58:32.990Z,27.53
2022-10-12T23:02:15.927Z,33.00
2022-10-12T23:06:00.053Z,30.13
2022-10-12T23:09:45.070Z,27.83
2022-10-12T23:13:27.678Z,28.67
2022-10-12T23:17:10.310Z,40.07
2022-10-12T23:20:53.007Z,29.07
2022-10-12T23:24:35.672Z,30.67
2022-10-12T23:28:19.767Z,29.17
2022-10-12T23:32:02.454Z,27.27
2022-10-12T23:35:45.163Z,29.93
2022-10-12T23:39:29.743Z,31.73
2022-10-12T23:43:12.405Z,29.30
2022-10-12T23:46:56.480Z,29.53
2022-10-12T23:50:42.764Z,31.20
2022-10-12T23:54:25.482Z,27.10
2022-10-12T23:58:11.121Z,28.60
